sensor_id;sensor_type;location;lat;lon;timestamp;pressure;altitude;pressure_sealevel;temperature;humidity
7168;BME280;3625;51.762;14.320;2023-05-03T00:00:39;101735.19;;;6.66;100.00
7168;BME280;3625;51.762;14.320;2023-05-03T00:03:10;101737.00;;;6.70;100.00
7168;BME280;3625;51.762;14.320;2023-05-03T00:05:40;101736.16;;;6.71;100.00
7168;BME280;3625;51.762;14.320;2023-05-03T00:08:10;101743.22;;;6.74;100.00
7168;BME280;3625;51.762;14.320;2023-05-03T00:10:39;101742.31;;;6.75;100.00
7168;BME280;3625;51.762;14.320;2023-05-03T00:13:08;101747.59;;;6.73;100.00
7168;BME280;3625;51.762;14.320;2023-05-03T00:15:36;101749.31;;;6.71;100.00
7168;BME280;3625;51.762;14.320;2023-05-03T00:18:05;101741.34;;;6.65;100.00
7168;BME280;3625;51.762;14.320;2023-05-03T00:20:34;101738.59;;;6.59;100.00
7168;BME280;3625;51.762;14.320;2023-05-03T00:23:03;101743.75;;;6.52;100.00
7168;BME280;3625;51.762;14.320;2023-05-03T00:25:33;101739.22;;;6.41;100.00
7168;BME280;3625;51.762;14.320;2023-05-03T00:28:02;101729.41;;;6.31;100.00
7168;BME280;3625;51.762;14.320;2023-05-03T00:30:31;101735.41;;;6.23;100.00
7168;BME280;3625;51.762;14.320;2023-05-03T00:33:00;101735.16;;;6.07;100.00
7168;BME280;3625;51.762;14.320;2023-05-03T00:35:29;101729.69;;;5.94;100.00
7168;BME280;3625;51.762;14.320;2023-05-03T00:37:59;101729.38;;;5.77;100.00
7168;BME280;3625;51.762;14.320;2023-05-03T00:40:28;101723.84;;;5.62;100.00
7168;BME280;3625;51.762;14.320;2023-05-03T00:42:58;101731.53;;;5.51;100.00
7168;BME280;3625;51.762;14.320;2023-05-03T00:45:29;101734.88;;;5.46;100.00
7168;BME280;3625;51.762;14.320;2023-05-03T00:47:58;101730.38;;;5.39;100.00
7168;BME280;3625;51.762;14.320;2023-05-03T00:50:27;101722.41;;;5.32;100.00
7168;BME280;3625;51.762;14.320;2023-05-03T00:52:57;101733.72;;;5.30;100.00
7168;BME280;3625;51.762;14.320;2023-05-03T00:55:29;101730.94;;;5.22;100.00
7168;BME280;3625;51.762;14.320;2023-05-03T00:58:00;101723.69;;;5.09;100.00
7168;BME280;3625;51.762;14.320;2023-05-03T01:00:31;101726.09;;;4.99;100.00
7168;BME280;3625;51.762;14.320;2023-05-03T01:03:00;101721.53;;;4.90;100.00
7168;BME280;3625;51.762;14.320;2023-05-03T01:05:35;101720.56;;;4.86;100.00
7168;BME280;3625;51.762;14.320;2023-05-03T01:08:10;101725.78;;;4.83;100.00
7168;BME280;3625;51.762;14.320;2023-05-03T01:10:45;101725.66;;;4.79;100.00
7168;BME280;3625;51.762;14.320;2023-05-03T01:13:21;101728.19;;;4.74;100.00
7168;BME280;3625;51.762;14.320;2023-05-03T01:15:59;101633.31;;;4.11;100.00
7168;BME280;3625;51.762;14.320;2023-05-03T01:18:39;101688.94;;;4.38;100.00
7168;BME280;3625;51.762;14.320;2023-05-03T01:21:11;101728.72;;;4.58;100.00
7168;BME280;3625;51.762;14.320;2023-05-03T01:23:45;101728.50;;;4.50;100.00
7168;BME280;3625;51.762;14.320;2023-05-03T01:26:22;101731.00;;;4.44;100.00
7168;BME280;3625;51.762;14.320;2023-05-03T01:28:54;101727.47;;;4.42;100.00
7168;BME280;3625;51.762;14.320;2023-05-03T01:31:27;101727.72;;;4.53;100.00
7168;BME280;3625;51.762;14.320;2023-05-03T01:34:09;101718.44;;;4.69;100.00
7168;BME280;3625;51.762;14.320;2023-05-03T01:36:43;101723.97;;;4.81;100.00
7168;BME280;3625;51.762;14.320;2023-05-03T01:39:15;101722.28;;;4.84;100.00
7168;BME280;3625;51.762;14.320;2023-05-03T01:41:48;101725.13;;;4.95;100.00
7168;BME280;3625;51.762;14.320;2023-05-03T01:44:19;101720.84;;;4.99;100.00
7168;BME280;3625;51.762;14.320;2023-05-03T01:46:50;101721.00;;;5.06;100.00
7168;BME280;3625;51.762;14.320;2023-05-03T01:49:22;101715.13;;;5.19;100.00
7168;BME280;3625;51.762;14.320;2023-05-03T01:51:51;101713.56;;;5.29;100.00
7168;BME280;3625;51.762;14.320;2023-05-03T01:54:20;101713.66;;;5.32;100.00
7168;BME280;3625;51.762;14.320;2023-05-03T01:56:52;101728.66;;;5.39;100.00
7168;BME280;3625;51.762;14.320;2023-05-03T01:59:21;101730.66;;;5.54;100.00
7168;BME280;3625;51.762;14.320;2023-05-03T02:01:50;101727.09;;;5.49;100.00
7168;BME280;3625;51.762;14.320;2023-05-03T02:04:18;101725.22;;;5.42;100.00
7168;BME280;3625;51.762;14.320;2023-05-03T02:06:47;101731.22;;;5.36;100.00
7168;BME280;3625;51.762;14.320;2023-05-03T02:09:16;101732.06;;;5.34;100.00
7168;BME280;3625;51.762;14.320;2023-05-03T02:11:45;101730.25;;;5.31;100.00
7168;BME280;3625;51.762;14.320;2023-05-03T02:14:15;101717.94;;;5.27;100.00
7168;BME280;3625;51.762;14.320;2023-05-03T02:16:45;101722.19;;;5.22;100.00
7168;BME280;3625;51.762;14.320;2023-05-03T02:19:14;101720.41;;;5.21;100.00
7168;BME280;3625;51.762;14.320;2023-05-03T02:21:42;101723.16;;;5.25;100.00
7168;BME280;3625;51.762;14.320;2023-05-03T02:24:11;101724.72;;;5.17;100.00
7168;BME280;3625;51.762;14.320;2023-05-03T02:26:42;101646.72;;;4.64;100.00
7168;BME280;3625;51.762;14.320;2023-05-03T02:29:20;101726.06;;;4.97;100.00
7168;BME280;3625;51.762;14.320;2023-05-03T02:31:49;101726.66;;;4.85;100.00
7168;BME280;3625;51.762;14.320;2023-05-03T02:34:18;101726.50;;;4.78;100.00
7168;BME280;3625;51.762;14.320;2023-05-03T02:36:47;101733.41;;;4.73;100.00
7168;BME280;3625;51.762;14.320;2023-05-03T02:39:16;101731.50;;;4.67;100.00
7168;BME280;3625;51.762;14.320;2023-05-03T02:41:45;101732.44;;;4.69;100.00
7168;BME280;3625;51.762;14.320;2023-05-03T02:44:18;101732.44;;;4.69;100.00
7168;BME280;3625;51.762;14.320;2023-05-03T02:46:47;101736.00;;;4.71;100.00
7168;BME280;3625;51.762;14.320;2023-05-03T02:49:17;101735.06;;;4.69;100.00
7168;BME280;3625;51.762;14.320;2023-05-03T02:51:46;101735.09;;;4.71;100.00
7168;BME280;3625;51.762;14.320;2023-05-03T02:54:14;101739.56;;;4.75;100.00
7168;BME280;3625;51.762;14.320;2023-05-03T02:56:44;101738.69;;;4.76;100.00
7168;BME280;3625;51.762;14.320;2023-05-03T02:59:14;101746.63;;;4.79;100.00
7168;BME280;3625;51.762;14.320;2023-05-03T03:01:45;101739.75;;;4.82;100.00
7168;BME280;3625;51.762;14.320;2023-05-03T03:04:15;101745.06;;;4.87;100.00
7168;BME280;3625;51.762;14.320;2023-05-03T03:06:43;101737.31;;;4.91;100.00
7168;BME280;3625;51.762;14.320;2023-05-03T03:09:14;101749.66;;;4.97;100.00
7168;BME280;3625;51.762;14.320;2023-05-03T03:11:44;101752.44;;;5.05;100.00
7168;BME280;3625;51.762;14.320;2023-05-03T03:14:15;101745.72;;;5.17;100.00
7168;BME280;3625;51.762;14.320;2023-05-03T03:16:46;101745.16;;;5.34;100.00
7168;BME280;3625;51.762;14.320;2023-05-03T03:19:15;101755.03;;;5.47;100.00
7168;BME280;3625;51.762;14.320;2023-05-03T03:21:44;101756.09;;;5.56;100.00
7168;BME280;3625;51.762;14.320;2023-05-03T03:24:12;101756.09;;;5.56;100.00
7168;BME280;3625;51.762;14.320;2023-05-03T03:26:42;101754.38;;;5.57;100.00
7168;BME280;3625;51.762;14.320;2023-05-03T03:29:10;101755.19;;;5.53;100.00
7168;BME280;3625;51.762;14.320;2023-05-03T03:31:41;101761.28;;;5.52;100.00
7168;BME280;3625;51.762;14.320;2023-05-03T03:34:14;101770.97;;;5.56;100.00
7168;BME280;3625;51.762;14.320;2023-05-03T03:36:43;101775.44;;;5.60;100.00
7168;BME280;3625;51.762;14.320;2023-05-03T03:39:12;101770.22;;;5.63;100.00
7168;BME280;3625;51.762;14.320;2023-05-03T03:41:42;101773.75;;;5.65;100.00
7168;BME280;3625;51.762;14.320;2023-05-03T03:44:11;101772.94;;;5.67;100.00
7168;BME280;3625;51.762;14.320;2023-05-03T03:46:40;101784.44;;;5.74;100.00
7168;BME280;3625;51.762;14.320;2023-05-03T03:49:09;101782.84;;;5.82;100.00
7168;BME280;3625;51.762;14.320;2023-05-03T03:51:39;101784.75;;;5.89;100.00
7168;BME280;3625;51.762;14.320;2023-05-03T03:54:09;101784.88;;;5.95;100.00
7168;BME280;3625;51.762;14.320;2023-05-03T03:56:43;101791.97;;;6.01;100.00
7168;BME280;3625;51.762;14.320;2023-05-03T03:59:12;101787.69;;;6.06;100.00
7168;BME280;3625;51.762;14.320;2023-05-03T04:01:42;101789.56;;;6.13;100.00
7168;BME280;3625;51.762;14.320;2023-05-03T04:04:11;101786.13;;;6.17;100.00
7168;BME280;3625;51.762;14.320;2023-05-03T04:06:45;101799.34;;;6.23;100.00
7168;BME280;3625;51.762;14.320;2023-05-03T04:09:16;101801.25;;;6.32;100.00
7168;BME280;3625;51.762;14.320;2023-05-03T04:11:45;101793.47;;;6.36;100.00
7168;BME280;3625;51.762;14.320;2023-05-03T04:14:14;101797.06;;;6.43;100.00
7168;BME280;3625;51.762;14.320;2023-05-03T04:16:42;101806.78;;;6.47;100.00
7168;BME280;3625;51.762;14.320;2023-05-03T04:19:13;101806.00;;;6.53;100.00
7168;BME280;3625;51.762;14.320;2023-05-03T04:21:43;101805.19;;;6.58;100.00
7168;BME280;3625;51.762;14.320;2023-05-03T04:24:20;101807.97;;;6.67;100.00
7168;BME280;3625;51.762;14.320;2023-05-03T04:26:50;101815.13;;;6.74;100.00
7168;BME280;3625;51.762;14.320;2023-05-03T04:29:26;101816.97;;;6.81;100.00
7168;BME280;3625;51.762;14.320;2023-05-03T04:31:55;101818.81;;;6.89;100.00
7168;BME280;3625;51.762;14.320;2023-05-03T04:34:24;101826.88;;;6.99;100.00
7168;BME280;3625;51.762;14.320;2023-05-03T04:36:56;101822.63;;;7.09;100.00
7168;BME280;3625;51.762;14.320;2023-05-03T04:39:27;101835.91;;;7.16;98.22
7168;BME280;3625;51.762;14.320;2023-05-03T04:41:57;101829.00;;;7.26;97.21
7168;BME280;3625;51.762;14.320;2023-05-03T04:44:26;101837.94;;;7.39;96.30
7168;BME280;3625;51.762;14.320;2023-05-03T04:46:58;101844.19;;;7.47;94.96
7168;BME280;3625;51.762;14.320;2023-05-03T04:49:28;101846.88;;;7.51;93.17
7168;BME280;3625;51.762;14.320;2023-05-03T04:51:58;101850.41;;;7.55;91.27
7168;BME280;3625;51.762;14.320;2023-05-03T04:54:27;101849.56;;;7.56;91.20
7168;BME280;3625;51.762;14.320;2023-05-03T04:56:56;101854.94;;;7.65;90.02
7168;BME280;3625;51.762;14.320;2023-05-03T04:59:25;101856.00;;;7.78;89.51
7168;BME280;3625;51.762;14.320;2023-05-03T05:02:17;101858.72;;;7.87;88.74
7168;BME280;3625;51.762;14.320;2023-05-03T05:04:46;101861.44;;;7.96;88.41
7168;BME280;3625;51.762;14.320;2023-05-03T05:07:16;101857.16;;;8.04;88.08
7168;BME280;3625;51.762;14.320;2023-05-03T05:09:45;101861.59;;;8.08;87.44
7168;BME280;3625;51.762;14.320;2023-05-03T05:12:14;101866.94;;;8.16;87.15
7168;BME280;3625;51.762;14.320;2023-05-03T05:14:45;101868.81;;;8.27;86.38
7168;BME280;3625;51.762;14.320;2023-05-03T05:17:14;101871.56;;;8.35;85.56
7168;BME280;3625;51.762;14.320;2023-05-03T05:19:44;101866.31;;;8.40;84.96
7168;BME280;3625;51.762;14.320;2023-05-03T05:22:16;101881.25;;;8.41;84.04
7168;BME280;3625;51.762;14.320;2023-05-03T05:24:52;101883.91;;;8.42;84.25
7168;BME280;3625;51.762;14.320;2023-05-03T05:27:22;101878.66;;;8.42;84.47
7168;BME280;3625;51.762;14.320;2023-05-03T05:29:53;101881.44;;;8.56;84.76
7168;BME280;3625;51.762;14.320;2023-05-03T05:32:22;101882.44;;;8.75;84.62
7168;BME280;3625;51.762;14.320;2023-05-03T05:34:50;101886.06;;;8.86;83.46
7168;BME280;3625;51.762;14.320;2023-05-03T05:37:25;101882.50;;;8.82;82.76
7168;BME280;3625;51.762;14.320;2023-05-03T05:39:59;101885.19;;;8.87;83.54
7168;BME280;3625;51.762;14.320;2023-05-03T05:42:34;101889.59;;;8.91;82.71
7168;BME280;3625;51.762;14.320;2023-05-03T05:45:04;101891.38;;;8.90;82.49
7168;BME280;3625;51.762;14.320;2023-05-03T05:47:35;101895.72;;;8.85;82.09
7168;BME280;3625;51.762;14.320;2023-05-03T05:50:05;101896.56;;;8.80;81.29
7168;BME280;3625;51.762;14.320;2023-05-03T05:52:49;101898.25;;;8.70;81.45
7168;BME280;3625;51.762;14.320;2023-05-03T05:55:18;101903.38;;;8.53;83.23
7168;BME280;3625;51.762;14.320;2023-05-03T05:57:49;101897.16;;;8.47;84.30
7168;BME280;3625;51.762;14.320;2023-05-03T06:00:22;101905.06;;;8.48;84.93
7168;BME280;3625;51.762;14.320;2023-05-03T06:02:51;101900.66;;;8.46;84.09
7168;BME280;3625;51.762;14.320;2023-05-03T06:05:23;101902.44;;;8.45;83.65
7168;BME280;3625;51.762;14.320;2023-05-03T06:07:54;101912.03;;;8.37;83.52
7168;BME280;3625;51.762;14.320;2023-05-03T06:10:26;101906.69;;;8.32;84.22
7168;BME280;3625;51.762;14.320;2023-05-03T06:12:56;101902.28;;;8.31;84.63
7168;BME280;3625;51.762;14.320;2023-05-03T06:15:27;101905.78;;;8.32;84.10
7168;BME280;3625;51.762;14.320;2023-05-03T06:17:57;101900.41;;;8.21;83.89
7168;BME280;3625;51.762;14.320;2023-05-03T06:20:25;101903.84;;;8.16;84.57
7168;BME280;3625;51.762;14.320;2023-05-03T06:22:57;101907.41;;;8.19;85.43
7168;BME280;3625;51.762;14.320;2023-05-03T06:25:26;101909.22;;;8.26;85.12
7168;BME280;3625;51.762;14.320;2023-05-03T06:27:55;101920.78;;;8.36;84.32
7168;BME280;3625;51.762;14.320;2023-05-03T06:30:29;101910.25;;;8.39;83.60
7168;BME280;3625;51.762;14.320;2023-05-03T06:33:05;101920.03;;;8.49;83.51
7168;BME280;3625;51.762;14.320;2023-05-03T06:35:46;101922.66;;;8.48;82.84
7168;BME280;3625;51.762;14.320;2023-05-03T06:38:20;101924.47;;;8.52;83.11
7168;BME280;3625;51.762;14.320;2023-05-03T06:41:03;101916.63;;;8.61;80.82
7168;BME280;3625;51.762;14.320;2023-05-03T06:43:32;101928.97;;;8.62;80.37
7168;BME280;3625;51.762;14.320;2023-05-03T06:46:08;101920.19;;;8.64;80.78
7168;BME280;3625;51.762;14.320;2023-05-03T06:48:42;101925.53;;;8.72;81.53
7168;BME280;3625;51.762;14.320;2023-05-03T06:51:14;101930.84;;;8.77;81.32
7168;BME280;3625;51.762;14.320;2023-05-03T06:53:47;101920.34;;;8.83;80.90
7168;BME280;3625;51.762;14.320;2023-05-03T06:56:20;101930.97;;;8.90;79.88
7168;BME280;3625;51.762;14.320;2023-05-03T06:58:56;101940.69;;;8.96;79.37
7168;BME280;3625;51.762;14.320;2023-05-03T07:01:31;101935.44;;;9.02;78.53
7168;BME280;3625;51.762;14.320;2023-05-03T07:04:01;101933.75;;;9.07;77.82
7168;BME280;3625;51.762;14.320;2023-05-03T07:06:30;101939.91;;;9.11;76.96
7168;BME280;3625;51.762;14.320;2023-05-03T07:09:16;101924.25;;;9.35;74.56
7168;BME280;3625;51.762;14.320;2023-05-03T07:11:52;101926.97;;;9.42;73.82
7168;BME280;3625;51.762;14.320;2023-05-03T07:14:24;101925.22;;;9.52;75.03
7168;BME280;3625;51.762;14.320;2023-05-03T07:16:53;101931.41;;;9.54;73.73
7168;BME280;3625;51.762;14.320;2023-05-03T07:19:22;101928.78;;;9.56;74.80
7168;BME280;3625;51.762;14.320;2023-05-03T07:21:51;101930.56;;;9.61;73.68
7168;BME280;3625;51.762;14.320;2023-05-03T07:24:22;101935.91;;;9.72;73.44
7168;BME280;3625;51.762;14.320;2023-05-03T07:26:51;101935.94;;;9.79;72.24
7168;BME280;3625;51.762;14.320;2023-05-03T07:29:20;101943.91;;;9.82;70.98
7168;BME280;3625;51.762;14.320;2023-05-03T07:31:49;101940.38;;;9.87;70.54
7168;BME280;3625;51.762;14.320;2023-05-03T07:34:20;101936.03;;;9.99;69.93
7168;BME280;3625;51.762;14.320;2023-05-03T07:36:48;101932.63;;;10.23;70.96
7168;BME280;3625;51.762;14.320;2023-05-03T07:39:18;101936.22;;;10.57;71.19
7168;BME280;3625;51.762;14.320;2023-05-03T07:41:48;101932.72;;;10.94;66.12
7168;BME280;3625;51.762;14.320;2023-05-03T07:44:17;101942.38;;;11.33;61.81
7168;BME280;3625;51.762;14.320;2023-05-03T07:46:46;101939.69;;;11.59;64.08
7168;BME280;3625;51.762;14.320;2023-05-03T07:49:15;101941.44;;;11.85;59.53
7168;BME280;3625;51.762;14.320;2023-05-03T07:51:44;101876.94;;;11.63;55.83
7168;BME280;3625;51.762;14.320;2023-05-03T07:54:12;101940.41;;;12.19;56.56
7168;BME280;3625;51.762;14.320;2023-05-03T07:56:41;101938.19;;;12.83;56.21
7168;BME280;3625;51.762;14.320;2023-05-03T07:59:11;101938.38;;;13.62;55.67
7168;BME280;3625;51.762;14.320;2023-05-03T08:01:41;101946.75;;;14.02;51.67
7168;BME280;3625;51.762;14.320;2023-05-03T08:04:10;101944.72;;;14.23;50.67
7168;BME280;3625;51.762;14.320;2023-05-03T08:06:39;101957.28;;;14.12;46.96
7168;BME280;3625;51.762;14.320;2023-05-03T08:09:09;101951.78;;;14.26;48.50
7168;BME280;3625;51.762;14.320;2023-05-03T08:11:39;101957.91;;;14.32;45.08
7168;BME280;3625;51.762;14.320;2023-05-03T08:14:12;101958.00;;;14.25;44.26
7168;BME280;3625;51.762;14.320;2023-05-03T08:16:40;101953.47;;;14.33;44.52
7168;BME280;3625;51.762;14.320;2023-05-03T08:19:09;101953.25;;;14.48;43.99
7168;BME280;3625;51.762;14.320;2023-05-03T08:21:38;101960.19;;;14.61;43.01
7168;BME280;3625;51.762;14.320;2023-05-03T08:24:07;101955.66;;;14.68;42.58
7168;BME280;3625;51.762;14.320;2023-05-03T08:26:36;101962.78;;;14.64;41.73
7168;BME280;3625;51.762;14.320;2023-05-03T08:29:05;101954.06;;;14.55;42.83
7168;BME280;3625;51.762;14.320;2023-05-03T08:31:36;101946.81;;;14.63;43.81
7168;BME280;3625;51.762;14.320;2023-05-03T08:34:04;101950.06;;;14.85;44.17
7168;BME280;3625;51.762;14.320;2023-05-03T08:36:34;101955.00;;;15.07;44.52
7168;BME280;3625;51.762;14.320;2023-05-03T08:39:25;101953.06;;;15.16;43.75
7168;BME280;3625;51.762;14.320;2023-05-03T08:41:54;101953.22;;;15.08;43.68
7168;BME280;3625;51.762;14.320;2023-05-03T08:44:23;101947.13;;;15.00;43.12
7168;BME280;3625;51.762;14.320;2023-05-03T08:46:58;101954.03;;;15.13;43.61
7168;BME280;3625;51.762;14.320;2023-05-03T08:49:28;101953.34;;;15.51;43.87
7168;BME280;3625;51.762;14.320;2023-05-03T08:51:59;101963.31;;;15.89;43.40
7168;BME280;3625;51.762;14.320;2023-05-03T08:54:28;101968.09;;;16.16;42.73
7168;BME280;3625;51.762;14.320;2023-05-03T08:56:57;101960.25;;;16.49;42.26
7168;BME280;3625;51.762;14.320;2023-05-03T08:59:25;101967.56;;;16.39;39.29
7168;BME280;3625;51.762;14.320;2023-05-03T09:01:57;101964.97;;;16.36;39.98
7168;BME280;3625;51.762;14.320;2023-05-03T09:04:32;101965.50;;;16.52;39.50
7168;BME280;3625;51.762;14.320;2023-05-03T09:07:07;101964.09;;;16.76;40.16
7168;BME280;3625;51.762;14.320;2023-05-03T09:09:37;101966.59;;;16.83;40.48
7168;BME280;3625;51.762;14.320;2023-05-03T09:12:06;101968.03;;;16.59;38.21
7168;BME280;3625;51.762;14.320;2023-05-03T09:14:44;101973.75;;;16.43;38.34
7168;BME280;3625;51.762;14.320;2023-05-03T09:17:16;101970.97;;;16.47;38.89
7168;BME280;3625;51.762;14.320;2023-05-03T09:19:49;101975.06;;;16.64;39.14
7168;BME280;3625;51.762;14.320;2023-05-03T09:22:19;101977.22;;;16.05;38.56
7168;BME280;3625;51.762;14.320;2023-05-03T09:24:51;101967.28;;;15.16;40.71
7168;BME280;3625;51.762;14.320;2023-05-03T09:27:22;101961.78;;;15.27;40.86
7168;BME280;3625;51.762;14.320;2023-05-03T09:29:52;101959.59;;;14.41;43.01
7168;BME280;3625;51.762;14.320;2023-05-03T09:32:22;101950.56;;;13.82;43.36
7168;BME280;3625;51.762;14.320;2023-05-03T09:35:07;101960.09;;;14.00;44.39
7168;BME280;3625;51.762;14.320;2023-05-03T09:37:36;101957.53;;;14.61;43.89
7168;BME280;3625;51.762;14.320;2023-05-03T09:40:06;101960.16;;;15.18;41.71
7168;BME280;3625;51.762;14.320;2023-05-03T09:42:36;101953.59;;;15.37;40.97
7168;BME280;3625;51.762;14.320;2023-05-03T09:45:10;101963.91;;;15.57;40.67
7168;BME280;3625;51.762;14.320;2023-05-03T09:47:50;101964.13;;;14.94;41.05
7168;BME280;3625;51.762;14.320;2023-05-03T09:50:22;101962.97;;;15.61;40.63
7168;BME280;3625;51.762;14.320;2023-05-03T09:52:53;101955.59;;;15.25;39.28
7168;BME280;3625;51.762;14.320;2023-05-03T09:55:24;101955.25;;;16.34;39.41
7168;BME280;3625;51.762;14.320;2023-05-03T09:57:54;101968.06;;;17.30;37.78
7168;BME280;3625;51.762;14.320;2023-05-03T10:00:23;101971.69;;;17.29;36.06
7168;BME280;3625;51.762;14.320;2023-05-03T10:02:54;101968.34;;;17.88;36.60
7168;BME280;3625;51.762;14.320;2023-05-03T10:05:29;101968.88;;;18.30;35.39
7168;BME280;3625;51.762;14.320;2023-05-03T10:08:00;101956.38;;;17.68;36.47
7168;BME280;3625;51.762;14.320;2023-05-03T10:10:32;101953.09;;;18.21;36.10
7168;BME280;3625;51.762;14.320;2023-05-03T10:13:02;101954.81;;;16.52;36.75
7168;BME280;3625;51.762;14.320;2023-05-03T10:15:31;101943.03;;;16.62;37.88
7168;BME280;3625;51.762;14.320;2023-05-03T10:18:01;101940.16;;;17.07;37.33
7168;BME280;3625;51.762;14.320;2023-05-03T10:20:36;101934.97;;;17.01;37.06
7168;BME280;3625;51.762;14.320;2023-05-03T10:23:08;101946.34;;;16.73;37.15
7168;BME280;3625;51.762;14.320;2023-05-03T10:25:39;101936.84;;;16.20;37.20
7168;BME280;3625;51.762;14.320;2023-05-03T10:28:09;101935.72;;;15.41;38.67
7168;BME280;3625;51.762;14.320;2023-05-03T10:30:39;101930.03;;;14.59;40.27
7168;BME280;3625;51.762;14.320;2023-05-03T10:33:28;101917.44;;;14.05;41.96
7168;BME280;3625;51.762;14.320;2023-05-03T10:35:58;101920.25;;;13.94;41.94
7168;BME280;3625;51.762;14.320;2023-05-03T10:38:28;101920.56;;;13.68;42.55
7168;BME280;3625;51.762;14.320;2023-05-03T10:40:59;101920.75;;;13.50;42.86
7168;BME280;3625;51.762;14.320;2023-05-03T10:43:43;101915.38;;;13.57;42.96
7168;BME280;3625;51.762;14.320;2023-05-03T10:46:40;101918.75;;;13.73;42.85
7168;BME280;3625;51.762;14.320;2023-05-03T10:49:17;101912.09;;;14.09;42.33
7168;BME280;3625;51.762;14.320;2023-05-03T10:51:46;101915.34;;;14.29;41.85
7168;BME280;3625;51.762;14.320;2023-05-03T10:54:15;101912.31;;;14.57;41.20
7168;BME280;3625;51.762;14.320;2023-05-03T10:56:55;101915.41;;;14.85;40.55
7168;BME280;3625;51.762;14.320;2023-05-03T10:59:23;101906.72;;;15.23;40.14
7168;BME280;3625;51.762;14.320;2023-05-03T11:01:53;101900.66;;;15.64;40.10
7168;BME280;3625;51.762;14.320;2023-05-03T11:04:35;101917.75;;;16.37;38.45
7168;BME280;3625;51.762;14.320;2023-05-03T11:07:05;101906.47;;;16.64;37.73
7168;BME280;3625;51.762;14.320;2023-05-03T11:09:36;101907.34;;;16.65;37.31
7168;BME280;3625;51.762;14.320;2023-05-03T11:12:07;101912.63;;;16.68;37.74
7168;BME280;3625;51.762;14.320;2023-05-03T11:14:36;101908.41;;;16.56;37.84
7168;BME280;3625;51.762;14.320;2023-05-03T11:17:06;101909.16;;;16.24;38.02
7168;BME280;3625;51.762;14.320;2023-05-03T11:19:36;101907.25;;;15.89;39.03
7168;BME280;3625;51.762;14.320;2023-05-03T11:22:06;101903.75;;;14.92;39.16
7168;BME280;3625;51.762;14.320;2023-05-03T11:24:35;101909.22;;;13.51;41.52
7168;BME280;3625;51.762;14.320;2023-05-03T11:27:03;101904.97;;;13.36;42.36
7168;BME280;3625;51.762;14.320;2023-05-03T11:29:35;101897.88;;;13.38;42.20
7168;BME280;3625;51.762;14.320;2023-05-03T11:32:07;101903.13;;;13.43;42.50
7168;BME280;3625;51.762;14.320;2023-05-03T11:34:38;101897.81;;;13.41;42.57
7168;BME280;3625;51.762;14.320;2023-05-03T11:37:08;101893.28;;;13.51;42.64
7168;BME280;3625;51.762;14.320;2023-05-03T11:39:37;101891.69;;;13.33;42.39
7168;BME280;3625;51.762;14.320;2023-05-03T11:42:06;101896.81;;;13.53;42.51
7168;BME280;3625;51.762;14.320;2023-05-03T11:44:35;101892.38;;;13.53;41.80
7168;BME280;3625;51.762;14.320;2023-05-03T11:47:05;101886.84;;;13.72;42.34
7168;BME280;3625;51.762;14.320;2023-05-03T11:49:34;101892.81;;;13.89;41.55
7168;BME280;3625;51.762;14.320;2023-05-03T11:52:04;101896.19;;;14.03;40.78
7168;BME280;3625;51.762;14.320;2023-05-03T11:54:35;101896.19;;;14.03;40.45
7168;BME280;3625;51.762;14.320;2023-05-03T11:57:12;101899.44;;;14.25;40.09
7168;BME280;3625;51.762;14.320;2023-05-03T11:59:41;101894.09;;;14.26;40.00
7168;BME280;3625;51.762;14.320;2023-05-03T12:02:12;101893.34;;;14.17;40.54
7168;BME280;3625;51.762;14.320;2023-05-03T12:04:43;101888.03;;;14.15;41.11
7168;BME280;3625;51.762;14.320;2023-05-03T12:07:14;101877.13;;;14.33;41.81
7168;BME280;3625;51.762;14.320;2023-05-03T12:09:48;101883.88;;;14.59;41.87
7168;BME280;3625;51.762;14.320;2023-05-03T12:12:36;101886.47;;;14.62;40.00
7168;BME280;3625;51.762;14.320;2023-05-03T12:15:10;101889.72;;;14.79;39.98
7168;BME280;3625;51.762;14.320;2023-05-03T12:17:43;101885.34;;;14.77;39.60
7168;BME280;3625;51.762;14.320;2023-05-03T12:20:27;101883.66;;;14.71;39.72
7168;BME280;3625;51.762;14.320;2023-05-03T12:23:05;101885.47;;;14.69;39.96
7168;BME280;3625;51.762;14.320;2023-05-03T12:25:37;101879.19;;;14.73;40.37
7168;BME280;3625;51.762;14.320;2023-05-03T12:28:10;101881.03;;;14.69;39.61
7168;BME280;3625;51.762;14.320;2023-05-03T12:30:49;101874.88;;;14.66;39.38
7168;BME280;3625;51.762;14.320;2023-05-03T12:33:19;101877.50;;;14.69;39.46
7168;BME280;3625;51.762;14.320;2023-05-03T12:35:50;101865.84;;;14.73;39.46
7168;BME280;3625;51.762;14.320;2023-05-03T12:38:22;101866.69;;;14.77;39.39
7168;BME280;3625;51.762;14.320;2023-05-03T12:40:52;101862.22;;;14.79;40.02
7168;BME280;3625;51.762;14.320;2023-05-03T12:43:21;101857.72;;;14.82;40.33
7168;BME280;3625;51.762;14.320;2023-05-03T12:45:50;101790.69;;;14.54;40.08
7168;BME280;3625;51.762;14.320;2023-05-03T12:48:36;101857.13;;;15.14;39.27
7168;BME280;3625;51.762;14.320;2023-05-03T12:51:05;101856.38;;;15.07;39.06
7168;BME280;3625;51.762;14.320;2023-05-03T12:53:47;101856.91;;;14.79;39.62
7168;BME280;3625;51.762;14.320;2023-05-03T12:56:21;101854.31;;;14.72;40.30
7168;BME280;3625;51.762;14.320;2023-05-03T12:58:52;101858.63;;;14.80;39.48
7168;BME280;3625;51.762;14.320;2023-05-03T13:01:24;101852.41;;;14.79;39.56
7168;BME280;3625;51.762;14.320;2023-05-03T13:03:55;101862.75;;;14.45;39.52
7168;BME280;3625;51.762;14.320;2023-05-03T13:06:46;101851.28;;;14.43;40.25
7168;BME280;3625;51.762;14.320;2023-05-03T13:09:26;101852.03;;;14.50;40.37
7168;BME280;3625;51.762;14.320;2023-05-03T13:12:21;101846.28;;;14.76;40.39
7168;BME280;3625;51.762;14.320;2023-05-03T13:14:51;101853.47;;;15.20;39.90
7168;BME280;3625;51.762;14.320;2023-05-03T13:17:21;101854.63;;;15.51;38.99
7168;BME280;3625;51.762;14.320;2023-05-03T13:19:55;101850.13;;;15.56;38.20
7168;BME280;3625;51.762;14.320;2023-05-03T13:22:24;101853.56;;;15.61;38.58
7168;BME280;3625;51.762;14.320;2023-05-03T13:24:55;101847.34;;;15.62;38.32